Terminal Aerodrome Forecast
Issued by NWS

Home | Current Version | Previous Version | Text Only | Print | Product List | Glossary On
Versions: 1 2 3 4 5 6 7 8 9 10 11 12 13 14 15 16 17 18 19 20
000
FTUS41 KPBZ 010500
TAFBVI
TAF
KBVI 010526Z 0106/0206 21004KT P6SM OVC008
     FM010800 20004KT 4SM BR BKN004
     FM011200 20004KT P6SM BKN012
     FM011500 23005KT P6SM BKN025
     FM011700 23008KT P6SM SCT040
     FM020500 24006KT P6SM VCSH BKN035
      AMD NOT SKED=

USA.gov is the U.S. government's official web portal to all federal, state and local government web resources and services.